Time;durP1;ratioP1;P1;durP2;ratioP2;P2;SDS_P1;SDS_P2;PMS_P1;PMS_P2;Temp;Humidity;BMP_temperature;BMP_pressure;BME280_temperature;BME280_humidity;BME280_pressure;Samples;Min_cycle;Max_cycle;Signal;HPM_P1;HPM_P2
2022/09/02 00:01:01;;;;;;;0.00;0.00;;;11.70;99.90;;;;;;5028416;28;20042;-90
2022/09/02 00:03:33;;;;;;;0.00;0.00;;;12.40;99.90;;;;;;5029551;28;20045;-90
2022/09/02 00:06:00;;;;;;;0.45;0.32;;;11.00;99.90;;;;;;5031618;28;20069;-90
2022/09/02 00:08:26;;;;;;;0.20;0.20;;;11.70;99.90;;;;;;5029933;28;20064;-90
2022/09/02 00:10:52;;;;;;;0.10;0.10;;;11.20;99.90;;;;;;5029762;28;20050;-90
2022/09/02 00:13:19;;;;;;;0.00;0.00;;;11.10;99.90;;;;;;5030253;28;20396;-90
2022/09/02 00:15:47;;;;;;;0.00;0.00;;;11.00;99.90;;;;;;5031425;28;20101;-90
2022/09/02 00:18:15;;;;;;;0.65;0.65;;;11.00;99.90;;;;;;5031513;28;20099;-89
2022/09/02 00:20:43;;;;;;;0.10;0.10;;;11.00;99.90;;;;;;5032013;28;20038;-89
2022/09/02 00:23:10;;;;;;;0.00;0.00;;;10.90;99.90;;;;;;5033322;28;20050;-89
2022/09/02 00:25:37;;;;;;;0.00;0.00;;;10.90;99.90;;;;;;5032722;28;20042;-90
2022/09/02 00:28:03;;;;;;;0.00;0.00;;;10.70;99.90;;;;;;5032215;28;20101;-89
2022/09/02 00:30:29;;;;;;;0.00;0.00;;;11.70;99.90;;;;;;5030816;28;20068;-90
2022/09/02 00:32:55;;;;;;;0.00;0.00;;;10.50;99.90;;;;;;5031393;28;20042;-90
2022/09/02 00:35:21;;;;;;;0.10;0.10;;;10.40;99.90;;;;;;5032623;28;20042;-89
2022/09/02 00:37:46;;;;;;;0.17;0.08;;;10.30;99.90;;;;;;5034305;28;20045;-89
2022/09/02 00:40:14;;;;;;;0.35;0.20;;;10.20;99.90;;;;;;5018443;28;20042;-91
2022/09/02 00:42:40;;;;;;;0.00;0.00;;;10.20;99.90;;;;;;5035672;28;20492;-90
2022/09/02 00:45:07;;;;;;;0.20;0.13;;;11.10;99.90;;;;;;5022266;28;20049;-91
2022/09/02 00:47:33;;;;;;;0.00;0.00;;;10.00;99.90;;;;;;5039824;28;20060;-91
2022/09/02 00:49:59;;;;;;;0.03;0.03;;;10.30;99.90;;;;;;5023036;28;20038;-90
2022/09/02 00:52:32;;;;;;;0.10;0.10;;;9.90;99.90;;;;;;5023321;28;20037;-90
2022/09/02 00:55:04;;;;;;;0.00;0.00;;;10.00;99.90;;;;;;5020480;28;20048;-90
2022/09/02 00:57:35;;;;;;;0.13;0.08;;;10.00;99.90;;;;;;5033976;28;20109;-90
2022/09/02 01:00:07;;;;;;;0.00;0.00;;;9.70;99.90;;;;;;5030985;28;20060;-89
2022/09/02 01:02:36;;;;;;;0.00;0.00;;;10.00;99.90;;;;;;5015245;28;20042;-89
2022/09/02 01:05:03;;;;;;;4.22;1.27;;;9.90;99.90;;;;;;5032056;28;20502;-90
2022/09/02 01:07:33;;;;;;;0.10;0.10;;;9.90;99.90;;;;;;5031669;28;20046;-89
2022/09/02 01:10:00;;;;;;;0.25;0.15;;;9.90;99.90;;;;;;5012996;28;20074;-89
2022/09/02 01:12:28;;;;;;;0.22;0.13;;;9.80;99.90;;;;;;5030336;28;20049;-89
2022/09/02 01:14:55;;;;;;;0.03;0.03;;;9.70;99.90;;;;;;5028981;28;20042;-89
2022/09/02 01:17:20;;;;;;;0.00;0.00;;;9.70;99.90;;;;;;5031436;28;20068;-89
2022/09/02 01:19:50;;;;;;;0.10;0.10;;;10.90;99.90;;;;;;5031304;28;20038;-90
2022/09/02 01:22:25;;;;;;;0.10;0.10;;;9.70;99.90;;;;;;5032743;28;20145;-89
2022/09/02 01:24:52;;;;;;;0.00;0.00;;;9.70;99.90;;;;;;5034544;28;20049;-90
2022/09/02 01:27:20;;;;;;;0.00;0.00;;;9.60;99.90;;;;;;5034391;28;20491;-91
2022/09/02 01:29:52;;;;;;;0.15;0.15;;;9.60;99.90;;;;;;5016588;28;20046;-89
2022/09/02 01:32:17;;;;;;;0.00;0.00;;;9.50;99.90;;;;;;5034197;28;20034;-90
2022/09/02 01:34:43;;;;;;;0.00;0.00;;;9.50;99.90;;;;;;5033121;28;20042;-89
2022/09/02 01:37:09;;;;;;;0.17;0.17;;;9.40;99.90;;;;;;5033138;28;20102;-90
2022/09/02 01:39:34;;;;;;;0.00;0.00;;;9.30;99.90;;;;;;5032288;28;20046;-90
2022/09/02 01:42:01;;;;;;;0.00;0.00;;;9.30;99.90;;;;;;5033188;28;20028;-90
2022/09/02 01:44:27;;;;;;;0.52;0.30;;;9.20;99.90;;;;;;5043551;28;20045;-89
2022/09/02 01:46:53;;;;;;;0.20;0.15;;;9.10;99.90;;;;;;5031629;28;20148;-90
2022/09/02 01:49:19;;;;;;;0.00;0.00;;;9.10;99.90;;;;;;5034049;28;20064;-90
2022/09/02 01:51:45;;;;;;;0.00;0.00;;;9.10;99.90;;;;;;5033807;28;20046;-90
2022/09/02 01:54:11;;;;;;;0.00;0.00;;;9.10;99.90;;;;;;5017826;28;20073;-89
2022/09/02 01:56:37;;;;;;;1.08;0.25;;;9.00;99.90;;;;;;5050477;28;20061;-89
2022/09/02 01:59:06;;;;;;;0.25;0.25;;;9.00;99.90;;;;;;5047122;28;20052;-89
2022/09/02 02:01:33;;;;;;;0.00;0.00;;;9.10;99.90;;;;;;5029701;28;20049;-89
2022/09/02 02:04:00;;;;;;;0.00;0.00;;;9.00;99.90;;;;;;5018314;28;20033;-89
2022/09/02 02:06:26;;;;;;;0.08;0.08;;;9.30;99.90;;;;;;5032998;28;20128;-90
2022/09/02 02:08:52;;;;;;;0.20;0.20;;;9.00;99.90;;;;;;5033620;28;20041;-90
2022/09/02 02:11:20;;;;;;;0.20;0.10;;;9.10;99.90;;;;;;5052137;28;20076;-89
2022/09/02 02:13:46;;;;;;;0.20;0.10;;;9.10;99.90;;;;;;5034778;28;20034;-89
2022/09/02 02:16:12;;;;;;;0.00;0.00;;;9.60;99.90;;;;;;5053363;28;20048;-89
2022/09/02 02:18:38;;;;;;;0.15;0.15;;;10.10;99.90;;;;;;5036229;28;20029;-89
2022/09/02 02:21:03;;;;;;;0.20;0.20;;;9.80;99.90;;;;;;5052686;28;20081;-89
2022/09/02 02:23:29;;;;;;;0.10;0.10;;;9.20;99.90;;;;;;5034390;28;20064;-88
2022/09/02 02:25:55;;;;;;;0.00;0.00;;;9.30;99.90;;;;;;5035180;28;20084;-89
2022/09/02 02:28:20;;;;;;;0.03;0.03;;;9.30;99.90;;;;;;5033653;28;20060;-89
2022/09/02 02:30:46;;;;;;;0.00;0.00;;;9.50;99.90;;;;;;5033296;28;20037;-89
2022/09/02 02:33:12;;;;;;;0.00;0.00;;;9.40;99.90;;;;;;5033789;28;20034;-88
2022/09/02 02:35:38;;;;;;;0.10;0.10;;;9.70;99.90;;;;;;5016279;28;20053;-89
2022/09/02 02:38:04;;;;;;;0.10;0.10;;;9.70;99.90;;;;;;5015696;28;20033;-89
2022/09/02 02:40:29;;;;;;;0.00;0.00;;;10.70;99.90;;;;;;5050010;28;20078;-90
2022/09/02 02:42:55;;;;;;;0.00;0.00;;;9.80;99.90;;;;;;5015343;28;20042;-89
2022/09/02 02:45:22;;;;;;;0.00;0.00;;;9.70;99.90;;;;;;5028808;28;20498;-90
2022/09/02 02:47:48;;;;;;;0.13;0.10;;;9.70;99.90;;;;;;5033194;28;20060;-89
2022/09/02 02:50:16;;;;;;;0.00;0.00;;;9.70;99.90;;;;;;5040254;28;20037;-90
2022/09/02 02:52:42;;;;;;;0.00;0.00;;;9.70;99.90;;;;;;5007770;28;20056;-90
2022/09/02 02:55:10;;;;;;;0.00;0.00;;;9.70;99.90;;;;;;5040565;28;20022;-90
2022/09/02 02:57:38;;;;;;;0.22;0.15;;;9.70;99.90;;;;;;5024164;28;20025;-91
2022/09/02 03:00:14;;;;;;;0.03;0.03;;;9.70;99.90;;;;;;5036854;28;20041;-89
2022/09/02 03:02:40;;;;;;;0.40;0.40;;;9.90;99.90;;;;;;5014331;28;20045;-89
2022/09/02 03:05:08;;;;;;;0.00;0.00;;;10.90;99.90;;;;;;5048843;28;20045;-89
2022/09/02 03:07:33;;;;;;;5.50;0.22;;;9.70;99.90;;;;;;5029197;28;20068;-89
2022/09/02 03:09:59;;;;;;;0.00;0.00;;;9.60;99.90;;;;;;5029440;28;20038;-89
2022/09/02 03:12:25;;;;;;;0.43;0.38;;;9.60;99.90;;;;;;5047759;28;20049;-89
2022/09/02 03:14:51;;;;;;;0.00;0.00;;;9.70;99.90;;;;;;5051640;28;20116;-89
2022/09/02 03:17:17;;;;;;;0.10;0.10;;;9.70;99.90;;;;;;5034336;28;20345;-90
2022/09/02 03:19:43;;;;;;;0.00;0.00;;;9.60;99.90;;;;;;5052797;28;20069;-89
2022/09/02 03:22:09;;;;;;;0.08;0.08;;;10.30;99.90;;;;;;5034428;28;20494;-89
2022/09/02 03:24:36;;;;;;;0.00;0.00;;;9.50;99.90;;;;;;5054010;28;20045;-90
2022/09/02 03:27:03;;;;;;;0.35;0.25;;;9.50;99.90;;;;;;5036396;28;20095;-90
2022/09/02 03:29:28;;;;;;;0.00;0.00;;;9.30;99.90;;;;;;5036224;28;20132;-90
2022/09/02 03:31:54;;;;;;;0.00;0.00;;;9.10;99.90;;;;;;5032814;28;20077;-89
2022/09/02 03:34:20;;;;;;;0.88;0.50;;;9.00;99.90;;;;;;5049296;28;20045;-89
2022/09/02 03:36:45;;;;;;;0.10;0.10;;;9.00;99.90;;;;;;5051089;28;20033;-89
2022/09/02 03:39:11;;;;;;;0.65;0.20;;;9.00;99.90;;;;;;5052156;28;20049;-90
2022/09/02 03:41:40;;;;;;;0.05;0.05;;;8.90;99.90;;;;;;5051409;28;20053;-89
2022/09/02 03:44:06;;;;;;;0.00;0.00;;;9.30;99.90;;;;;;5050301;28;20058;-89
2022/09/02 03:46:32;;;;;;;0.50;0.22;;;8.80;99.90;;;;;;5016350;28;20041;-89
2022/09/02 03:48:58;;;;;;;0.00;0.00;;;8.80;99.90;;;;;;5050600;28;20045;-89
2022/09/02 03:51:24;;;;;;;0.30;0.20;;;8.80;99.90;;;;;;5035469;28;20113;-89
2022/09/02 03:53:50;;;;;;;0.03;0.03;;;9.90;99.90;;;;;;5036520;28;20038;-89
2022/09/02 03:56:16;;;;;;;0.30;0.30;;;8.70;99.90;;;;;;5053264;28;20041;-89
2022/09/02 03:58:44;;;;;;;0.00;0.00;;;8.70;99.90;;;;;;5050033;28;20057;-89
2022/09/02 04:01:28;;;;;;;0.00;0.00;;;8.60;99.90;;;;;;5033891;28;20049;-89
2022/09/02 04:03:55;;;;;;;0.00;0.00;;;8.60;99.90;;;;;;5016427;28;20073;-89
2022/09/02 04:06:24;;;;;;;0.00;0.00;;;8.50;99.90;;;;;;5022740;28;20045;-90
2022/09/02 04:08:50;;;;;;;0.00;0.00;;;8.50;99.90;;;;;;5017528;28;20048;-89
2022/09/02 04:11:18;;;;;;;3.03;0.45;;;8.40;99.90;;;;;;5016095;28;20042;-89
2022/09/02 04:13:45;;;;;;;0.00;0.00;;;8.40;99.90;;;;;;5048555;28;20037;-90
2022/09/02 04:16:18;;;;;;;0.00;0.00;;;8.40;99.90;;;;;;5031482;28;20069;-90
2022/09/02 04:18:43;;;;;;;4.75;0.40;;;9.00;99.90;;;;;;5049386;28;20065;-90
2022/09/02 04:21:09;;;;;;;0.15;0.15;;;8.40;99.90;;;;;;5049410;28;20499;-89
2022/09/02 04:23:36;;;;;;;0.15;0.15;;;8.40;99.90;;;;;;5015403;28;20041;-89
2022/09/02 04:26:08;;;;;;;0.45;0.45;;;8.40;99.90;;;;;;5016889;28;20113;-89
2022/09/02 04:28:34;;;;;;;0.10;0.10;;;8.80;99.90;;;;;;5034247;28;20041;-89
2022/09/02 04:31:08;;;;;;;0.10;0.10;;;8.30;99.90;;;;;;5034206;28;20043;-90
2022/09/02 04:33:34;;;;;;;0.00;0.00;;;9.20;99.90;;;;;;5050914;28;20377;-90
2022/09/02 04:36:04;;;;;;;0.20;0.20;;;9.10;99.90;;;;;;5048581;28;20041;-91
2022/09/02 04:38:30;;;;;;;0.00;0.00;;;8.10;99.90;;;;;;5048668;28;20491;-89
2022/09/02 04:40:57;;;;;;;0.45;0.45;;;8.10;99.90;;;;;;5045043;28;20045;-89
2022/09/02 04:43:22;;;;;;;6.32;0.35;;;8.00;99.90;;;;;;5045845;28;20514;-89
2022/09/02 04:45:48;;;;;;;0.00;0.00;;;7.80;99.90;;;;;;5046715;28;20056;-89
2022/09/02 04:48:14;;;;;;;0.00;0.00;;;7.80;99.90;;;;;;5046940;28;20045;-89
2022/09/02 04:50:41;;;;;;;0.00;0.00;;;7.70;99.90;;;;;;5046480;28;20046;-89
2022/09/02 04:53:07;;;;;;;0.10;0.10;;;7.60;99.90;;;;;;5028880;28;20041;-90
2022/09/02 04:55:33;;;;;;;0.00;0.00;;;7.60;99.90;;;;;;5036508;28;20042;-89
2022/09/02 04:57:59;;;;;;;0.43;0.43;;;7.60;99.90;;;;;;5028920;28;20056;-89
2022/09/02 05:00:25;;;;;;;0.00;0.00;;;7.60;99.90;;;;;;5045390;28;20042;-89
2022/09/02 05:02:53;;;;;;;0.00;0.00;;;7.60;99.90;;;;;;5046607;28;20496;-90
2022/09/02 05:05:18;;;;;;;0.03;0.03;;;7.50;99.90;;;;;;5048431;28;20072;-89
2022/09/02 05:07:44;;;;;;;0.00;0.00;;;7.50;99.90;;;;;;5032137;28;20045;-89
2022/09/02 05:10:13;;;;;;;0.00;0.00;;;7.60;99.90;;;;;;5049675;28;20505;-90
2022/09/02 05:12:40;;;;;;;0.15;0.15;;;7.70;99.90;;;;;;5032079;28;20053;-90
2022/09/02 05:15:07;;;;;;;0.20;0.20;;;7.70;99.90;;;;;;5049769;28;20045;-89
2022/09/02 05:17:34;;;;;;;0.10;0.10;;;7.80;99.90;;;;;;5049911;28;20109;-89
2022/09/02 05:20:05;;;;;;;0.00;0.00;;;7.90;99.90;;;;;;5016381;28;20047;-89
2022/09/02 05:22:31;;;;;;;0.00;0.00;;;8.00;99.90;;;;;;5016077;28;20037;-90
2022/09/02 05:24:56;;;;;;;0.10;0.10;;;8.10;99.90;;;;;;5032512;28;20065;-90
2022/09/02 05:27:22;;;;;;;0.00;0.00;;;8.20;99.90;;;;;;5035105;28;20104;-90
2022/09/02 05:29:48;;;;;;;0.00;0.00;;;8.20;99.90;;;;;;5032654;28;20068;-89
2022/09/02 05:32:14;;;;;;;0.10;0.10;;;8.40;99.90;;;;;;5031461;28;20504;-90
2022/09/02 05:34:40;;;;;;;0.00;0.00;;;8.50;99.90;;;;;;5052455;28;20045;-89
2022/09/02 05:37:06;;;;;;;0.40;0.40;;;8.70;99.90;;;;;;5034432;28;20045;-90
2022/09/02 05:39:32;;;;;;;0.10;0.10;;;8.80;99.90;;;;;;5019644;28;20052;-90
2022/09/02 05:41:58;;;;;;;0.25;0.25;;;8.80;99.90;;;;;;5052844;28;20030;-90
2022/09/02 05:44:24;;;;;;;0.55;0.20;;;9.10;99.90;;;;;;5035585;28;20107;-90
2022/09/02 05:46:50;;;;;;;0.20;0.20;;;9.20;99.90;;;;;;5055067;28;20049;-90
2022/09/02 05:49:16;;;;;;;0.10;0.08;;;9.40;99.90;;;;;;5034853;28;20124;-89
2022/09/02 05:51:49;;;;;;;0.22;0.22;;;9.70;99.90;;;;;;5036210;28;20053;-89
2022/09/02 05:54:30;;;;;;;0.22;0.20;;;9.80;99.90;;;;;;5036400;28;20041;-90
2022/09/02 05:56:58;;;;;;;0.20;0.20;;;9.90;99.90;;;;;;5037221;28;20069;-89
2022/09/02 05:59:26;;;;;;;0.52;0.30;;;10.00;99.90;;;;;;5037181;28;20041;-90
2022/09/02 06:01:53;;;;;;;0.00;0.00;;;10.30;99.90;;;;;;5036660;28;20045;-90
2022/09/02 06:04:21;;;;;;;0.77;0.20;;;10.30;99.90;;;;;;5034677;28;20487;-89
2022/09/02 06:06:47;;;;;;;1.10;1.00;;;10.40;99.90;;;;;;5034434;28;20129;-89
2022/09/02 06:09:15;;;;;;;0.52;0.45;;;10.60;99.90;;;;;;5047791;28;20053;-90
2022/09/02 06:11:44;;;;;;;0.28;0.17;;;10.70;99.90;;;;;;5048428;28;20120;-90
2022/09/02 06:14:15;;;;;;;0.00;0.00;;;10.80;99.90;;;;;;5029817;28;20103;-91
2022/09/02 06:16:41;;;;;;;0.35;0.22;;;11.50;99.90;;;;;;5032440;28;20056;-90
2022/09/02 06:19:07;;;;;;;0.20;0.20;;;12.60;99.90;;;;;;5048148;28;20044;-90
2022/09/02 06:21:34;;;;;;;6.47;1.48;;;13.20;99.90;;;;;;5033329;28;20049;-90
2022/09/02 06:23:59;;;;;;;0.10;0.03;;;13.80;99.90;;;;;;5031976;28;20042;-88
2022/09/02 06:26:25;;;;;;;0.03;0.03;;;14.10;99.90;;;;;;5031563;28;20453;-90
2022/09/02 06:28:51;;;;;;;0.00;0.00;;;15.60;99.90;;;;;;5041399;28;20041;-86
2022/09/02 06:31:19;;;;;;;0.00;0.00;;;15.20;99.90;;;;;;5034242;28;20045;-87
2022/09/02 06:33:46;;;;;;;0.00;0.00;;;15.20;99.90;;;;;;5034580;28;20045;-87
2022/09/02 06:36:16;;;;;;;0.25;0.17;;;15.30;99.90;;;;;;5034601;28;20049;-87
2022/09/02 06:38:44;;;;;;;0.10;0.10;;;15.60;99.90;;;;;;5034658;28;20037;-86
2022/09/02 06:41:12;;;;;;;0.25;0.25;;;15.60;99.90;;;;;;5042923;28;20037;-86
2022/09/02 06:43:38;;;;;;;1.52;0.20;;;15.90;99.90;;;;;;5033896;28;20095;-86
2022/09/02 06:46:04;;;;;;;0.38;0.17;;;17.10;99.90;;;;;;5016609;28;20121;-86
2022/09/02 06:48:30;;;;;;;0.10;0.10;;;16.20;99.90;;;;;;5033301;28;20476;-86
2022/09/02 06:50:55;;;;;;;0.60;0.32;;;16.90;99.90;;;;;;5034022;28;20044;-86
2022/09/02 06:53:21;;;;;;;0.00;0.00;;;16.40;99.90;;;;;;5034139;28;20527;-86
2022/09/02 06:55:47;;;;;;;0.20;0.17;;;16.60;99.90;;;;;;5034408;28;20049;-86
2022/09/02 06:58:14;;;;;;;0.00;0.00;;;16.20;99.90;;;;;;5034316;28;20477;-85
2022/09/02 07:00:40;;;;;;;0.47;0.10;;;16.90;99.90;;;;;;5016368;28;20542;-85
2022/09/02 07:06:08;;;;;;;0.95;0.40;;;16.80;99.90;;;;;;4997046;28;20467;-88
2022/09/02 07:08:39;;;;;;;0.00;0.00;;;17.00;99.90;;;;;;5014498;28;20141;-88
2022/09/02 07:11:13;;;;;;;2.13;1.35;;;17.10;99.90;;;;;;4996548;28;20463;-87
2022/09/02 07:13:39;;;;;;;0.10;0.10;;;17.60;99.90;;;;;;4997167;28;20052;-86
2022/09/02 07:16:06;;;;;;;0.05;0.03;;;17.40;99.90;;;;;;5014736;28;20427;-87
2022/09/02 07:18:32;;;;;;;0.32;0.22;;;18.20;99.90;;;;;;5018862;28;20052;-85
2022/09/02 07:20:58;;;;;;;0.52;0.10;;;18.40;99.90;;;;;;4989952;28;20041;-84
2022/09/02 07:23:24;;;;;;;0.00;0.00;;;18.90;99.90;;;;;;5021837;28;20133;-85
2022/09/02 07:25:49;;;;;;;0.00;0.00;;;19.50;99.90;;;;;;5024387;28;20430;-84
2022/09/02 07:28:17;;;;;;;0.03;0.03;;;19.30;99.90;;;;;;5023132;28;20052;-86
2022/09/02 07:30:44;;;;;;;0.28;0.20;;;19.30;98.60;;;;;;5018877;28;20052;-86
2022/09/02 07:33:12;;;;;;;0.10;0.10;;;19.10;99.60;;;;;;5014783;28;20068;-86
2022/09/02 07:35:40;;;;;;;0.85;0.65;;;18.90;99.90;;;;;;5015035;28;20046;-87
2022/09/02 07:38:06;;;;;;;0.30;0.10;;;18.10;99.90;;;;;;4998355;28;20049;-87
2022/09/02 07:40:58;;;;;;;0.98;0.55;;;17.40;99.90;;;;;;5015375;28;20408;-87
2022/09/02 07:43:25;;;;;;;0.40;0.40;;;17.20;99.90;;;;;;5014797;28;20057;-86
2022/09/02 07:45:52;;;;;;;0.17;0.17;;;17.10;99.90;;;;;;5016868;28;20053;-86
2022/09/02 07:48:18;;;;;;;0.00;0.00;;;17.30;99.90;;;;;;5016866;28;20057;-89
2022/09/02 07:50:43;;;;;;;0.05;0.05;;;18.80;99.90;;;;;;5019613;28;20421;-86
2022/09/02 07:53:10;;;;;;;0.32;0.32;;;19.00;97.70;;;;;;5017673;28;20074;-88
2022/09/02 07:55:36;;;;;;;0.17;0.10;;;20.00;92.10;;;;;;4983866;28;20046;-88
2022/09/02 07:58:03;;;;;;;0.10;0.10;;;19.70;91.00;;;;;;4986069;28;20053;-90
2022/09/02 08:00:29;;;;;;;0.00;0.00;;;21.00;76.20;;;;;;5011704;28;20059;-89
2022/09/02 08:02:55;;;;;;;0.10;0.10;;;20.20;83.80;;;;;;5012469;28;20109;-86
2022/09/02 08:05:21;;;;;;;3.95;0.75;;;20.80;73.20;;;;;;5023537;28;20073;-87
2022/09/02 08:07:47;;;;;;;0.73;0.65;;;20.70;66.50;;;;;;5023675;28;20049;-89
2022/09/02 08:10:15;;;;;;;0.65;0.50;;;20.30;62.80;;;;;;5067804;22;20411;-79
2022/09/02 08:12:41;;;;;;;0.25;0.20;;;20.50;64.70;;;;;;5054698;28;20507;-78
2022/09/02 08:15:09;;;;;;;0.00;0.00;;;20.30;63.50;;;;;;5059115;28;20048;-77
2022/09/02 08:17:35;;;;;;;0.00;0.00;;;20.60;60.30;;;;;;5060406;28;20681;-77
2022/09/02 08:20:00;;;;;;;0.32;0.22;;;21.30;61.30;;;;;;5053302;28;20081;-76
2022/09/02 08:22:32;;;;;;;0.22;0.13;;;21.70;45.50;;;;;;5039345;28;20230;-75
2022/09/02 08:24:59;;;;;;;1.30;0.13;;;21.30;43.20;;;;;;5040134;28;20451;-74
2022/09/02 08:27:26;;;;;;;0.15;0.15;;;20.60;49.10;;;;;;5039772;28;20053;-76
2022/09/02 08:29:52;;;;;;;0.25;0.25;;;21.00;54.50;;;;;;5041249;28;20042;-74
2022/09/02 08:32:17;;;;;;;0.30;0.30;;;21.60;51.10;;;;;;5042505;28;20132;-75
2022/09/02 08:34:43;;;;;;;0.65;0.47;;;21.30;40.70;;;;;;5043537;28;20177;-75
2022/09/02 08:37:09;;;;;;;0.00;0.00;;;22.00;29.40;;;;;;5039883;28;20053;-75
2022/09/02 08:39:35;;;;;;;0.38;0.38;;;21.70;33.10;;;;;;5040440;28;20118;-75
2022/09/02 08:42:22;;;;;;;0.43;0.30;;;22.00;26.70;;;;;;5055093;28;20052;-75
2022/09/02 08:44:54;;;;;;;0.00;0.00;;;22.80;26.90;;;;;;5060883;28;20041;-75
2022/09/02 08:47:24;;;;;;;0.10;0.10;;;23.00;19.70;;;;;;5057317;28;20518;-75
2022/09/02 08:49:56;;;;;;;0.38;0.28;;;21.90;19.60;;;;;;5057706;28;20167;-74
2022/09/02 08:52:35;;;;;;;0.00;0.00;;;21.50;24.80;;;;;;5053274;28;20110;-76
2022/09/02 08:55:01;;;;;;;0.10;0.10;;;21.90;25.10;;;;;;5051594;28;20634;-76
2022/09/02 08:57:27;;;;;;;0.22;0.20;;;22.10;19.80;;;;;;5051532;28;20128;-77
2022/09/02 08:59:57;;;;;;;0.00;0.00;;;22.10;16.70;;;;;;5051056;28;20120;-76
2022/09/02 09:02:33;;;;;;;0.00;0.00;;;22.20;19.10;;;;;;5051925;28;20045;-76
2022/09/02 09:05:12;;;;;;;0.00;0.00;;;23.10;19.30;;;;;;5052593;28;20057;-76
2022/09/02 09:07:55;;;;;;;0.10;0.10;;;23.90;16.40;;;;;;5052823;28;20049;-76
2022/09/02 09:10:43;;;;;;;0.55;0.35;;;23.10;9.80;;;;;;5051823;28;20562;-76
2022/09/02 09:13:36;;;;;;;0.00;0.00;;;23.00;10.60;;;;;;5051116;28;20110;-77
2022/09/02 09:16:26;;;;;;;0.20;0.20;;;22.70;12.10;;;;;;5050892;28;20551;-75
2022/09/02 09:19:07;;;;;;;0.10;0.10;;;22.50;11.90;;;;;;5050782;28;20033;-77
2022/09/02 09:21:33;;;;;;;0.30;0.25;;;22.30;14.30;;;;;;5050953;28;20120;-76
2022/09/02 09:24:06;;;;;;;0.00;0.00;;;22.60;13.00;;;;;;5051356;28;20132;-76
2022/09/02 09:26:37;;;;;;;0.00;0.00;;;22.60;13.10;;;;;;5051335;28;20052;-77
2022/09/02 09:29:03;;;;;;;0.22;0.08;;;22.70;10.10;;;;;;5033548;28;20439;-76
2022/09/02 09:31:31;;;;;;;0.10;0.10;;;22.80;10.70;;;;;;5053288;28;20175;-75
2022/09/02 09:34:05;;;;;;;0.28;0.17;;;23.20;9.20;;;;;;5053542;28;20056;-75
2022/09/02 09:36:39;;;;;;;0.32;0.22;;;23.30;7.20;;;;;;5051734;28;20048;-77
2022/09/02 09:39:23;;;;;;;0.00;0.00;;;22.80;8.80;;;;;;5051628;28;20045;-77
2022/09/02 09:41:51;;;;;;;0.17;0.15;;;22.60;7.70;;;;;;5051196;28;20079;-76
2022/09/02 09:44:43;;;;;;;3.63;0.17;;;22.50;13.30;;;;;;5050517;28;20492;-75
2022/09/02 09:47:24;;;;;;;0.20;0.20;;;22.50;10.50;;;;;;5050738;28;20077;-76
2022/09/02 09:50:12;;;;;;;0.13;0.13;;;22.60;9.60;;;;;;5051531;28;20079;-76
2022/09/02 09:52:38;;;;;;;0.47;0.32;;;22.70;9.00;;;;;;5059171;28;20044;-75
2022/09/02 09:55:19;;;;;;;0.15;0.10;;;22.60;6.30;;;;;;5060732;28;20037;-76
2022/09/02 09:57:46;;;;;;;0.30;0.20;;;22.40;5.50;;;;;;5039991;28;20414;-74
2022/09/02 10:00:26;;;;;;;0.28;0.20;;;22.20;5.30;;;;;;5062399;28;20060;-74
2022/09/02 10:02:55;;;;;;;0.00;0.00;;;22.40;8.40;;;;;;5058666;28;20528;-75
2022/09/02 10:05:24;;;;;;;0.15;0.10;;;22.60;5.80;;;;;;5059678;28;20045;-75
2022/09/02 10:07:57;;;;;;;0.03;0.00;;;22.80;4.30;;;;;;5067403;28;20099;-74
2022/09/02 10:10:26;;;;;;;0.00;0.00;;;23.10;2.00;;;;;;5065878;28;20450;-75
2022/09/02 10:12:56;;;;;;;0.77;0.60;;;23.30;1.00;;;;;;5066485;28;20506;-75
2022/09/02 10:15:37;;;;;;;0.10;0.10;;;23.40;1.00;;;;;;5064512;28;20060;-74
2022/09/02 10:18:17;;;;;;;1.35;0.55;;;23.70;1.00;;;;;;5062524;28;20107;-74
2022/09/02 10:21:15;;;;;;;0.05;0.05;;;23.60;1.00;;;;;;5057753;28;20053;-75
2022/09/02 10:23:54;;;;;;;0.90;0.43;;;23.30;1.00;;;;;;5058144;28;20049;-74
2022/09/02 10:26:24;;;;;;;0.10;0.05;;;23.00;1.00;;;;;;5060267;28;20043;-73
2022/09/02 10:29:27;;;;;;;0.47;0.45;;;23.00;1.00;;;;;;5063874;28;20043;-73
2022/09/02 10:32:25;;;;;;;0.00;0.00;;;23.30;1.00;;;;;;5063614;28;20120;-73
2022/09/02 10:35:15;;;;;;;0.08;0.08;;;23.90;1.00;;;;;;5015794;28;20680;-74
2022/09/02 10:38:18;;;;;;;0.08;0.08;;;23.60;1.00;;;;;;5058543;28;20048;-74
2022/09/02 10:40:51;;;;;;;0.10;0.10;;;23.70;1.00;;;;;;5060599;28;20049;-74
2022/09/02 10:43:43;;;;;;;0.00;0.00;;;23.60;1.00;;;;;;5059725;28;20063;-75
2022/09/02 10:46:16;;;;;;;0.32;0.10;;;23.80;1.00;;;;;;5057954;28;20359;-74
2022/09/02 10:48:51;;;;;;;0.32;0.28;;;24.00;1.00;;;;;;5057270;28;20083;-74
2022/09/02 10:51:41;;;;;;;0.20;0.20;;;24.30;1.00;;;;;;5057212;28;20548;-75
2022/09/02 10:54:12;;;;;;;0.28;0.20;;;24.20;1.00;;;;;;5053351;28;20041;-76
2022/09/02 10:57:00;;;;;;;0.43;0.25;;;24.10;1.00;;;;;;5053220;28;20049;-75
2022/09/02 10:59:33;;;;;;;0.52;0.22;;;24.10;1.00;;;;;;5052873;28;20464;-75
2022/09/02 11:02:18;;;;;;;0.00;0.00;;;24.20;1.00;;;;;;5056690;28;20511;-74
2022/09/02 11:04:55;;;;;;;10.05;0.73;;;24.70;1.00;;;;;;5058594;28;20041;-74
2022/09/02 11:07:27;;;;;;;3.10;1.10;;;24.40;1.00;;;;;;5056881;28;20041;-74
2022/09/02 11:10:08;;;;;;;0.45;0.38;;;24.20;1.00;;;;;;5059993;28;20061;-74
2022/09/02 11:12:39;;;;;;;0.00;0.00;;;24.60;1.00;;;;;;5055925;28;20053;-74
2022/09/02 11:15:20;;;;;;;1.35;0.55;;;25.00;1.00;;;;;;5057784;28;20047;-74
2022/09/02 11:18:01;;;;;;;1.02;0.47;;;25.20;1.00;;;;;;5056306;28;20081;-74
2022/09/02 11:20:29;;;;;;;0.00;0.00;;;24.80;1.00;;;;;;5057262;28;20049;-74
2022/09/02 11:23:01;;;;;;;0.00;0.00;;;24.60;1.00;;;;;;5059489;28;20049;-74
2022/09/02 11:25:38;;;;;;;0.15;0.15;;;24.80;1.00;;;;;;5056673;28;20106;-74
2022/09/02 11:28:23;;;;;;;0.00;0.00;;;25.00;1.00;;;;;;5059321;28;20041;-74
2022/09/02 11:30:54;;;;;;;0.08;0.08;;;25.20;1.00;;;;;;5057469;28;20519;-75
2022/09/02 11:33:47;;;;;;;0.00;0.00;;;25.20;1.00;;;;;;5057420;28;20056;-74
2022/09/02 11:36:14;;;;;;;0.20;0.15;;;25.60;1.00;;;;;;5061568;28;20454;-75
2022/09/02 11:39:15;;;;;;;0.80;0.70;;;26.20;1.00;;;;;;5062741;28;20049;-74
2022/09/02 11:41:53;;;;;;;0.00;0.00;;;27.20;1.00;;;;;;5060761;28;20120;-74
2022/09/02 11:44:51;;;;;;;0.00;0.00;;;26.80;1.00;;;;;;5059832;28;20048;-73
2022/09/02 11:47:39;;;;;;;0.50;0.28;;;26.40;1.00;;;;;;5058814;28;20041;-74
2022/09/02 11:50:34;;;;;;;0.00;0.00;;;27.10;1.00;;;;;;5058998;28;20098;-74
2022/09/02 11:53:21;;;;;;;0.00;0.00;;;26.50;1.00;;;;;;5059427;28;20103;-74
2022/09/02 11:55:57;;;;;;;0.08;0.03;;;27.00;1.00;;;;;;5059385;28;20162;-74
2022/09/02 11:58:38;;;;;;;0.03;0.03;;;26.80;1.00;;;;;;5060413;28;20037;-73
2022/09/02 12:01:22;;;;;;;0.15;0.08;;;27.70;1.00;;;;;;5059685;28;20197;-74
2022/09/02 12:03:54;;;;;;;0.00;0.00;;;27.90;1.00;;;;;;5059176;28;20122;-74
2022/09/02 12:06:20;;;;;;;0.25;0.20;;;29.00;1.00;;;;;;5060265;28;20069;-74
2022/09/02 12:08:47;;;;;;;1.45;0.30;;;28.00;1.00;;;;;;5060662;28;20045;-73
2022/09/02 12:11:37;;;;;;;0.00;0.00;;;28.10;1.00;;;;;;5059193;28;20049;-74
2022/09/02 12:14:05;;;;;;;0.08;0.08;;;27.40;1.00;;;;;;5057646;28;20546;-74
2022/09/02 12:16:36;;;;;;;0.00;0.00;;;27.60;1.00;;;;;;5057434;28;20495;-74
2022/09/02 12:19:06;;;;;;;0.20;0.20;;;27.60;1.00;;;;;;5058248;28;20063;-74
2022/09/02 12:21:34;;;;;;;0.10;0.10;;;27.50;1.00;;;;;;5058010;28;20488;-74
2022/09/02 12:23:59;;;;;;;0.40;0.40;;;27.20;1.00;;;;;;5057683;28;20045;-74
2022/09/02 12:26:36;;;;;;;0.20;0.20;;;27.90;1.00;;;;;;5058040;28;20102;-74
2022/09/02 12:29:23;;;;;;;0.35;0.25;;;28.50;1.00;;;;;;5056950;28;20072;-75
2022/09/02 12:31:50;;;;;;;2.60;0.20;;;28.50;1.00;;;;;;5056636;28;20053;-74
2022/09/02 12:34:19;;;;;;;2.70;0.43;;;29.00;1.00;;;;;;5058474;28;20380;-73
2022/09/02 12:36:48;;;;;;;1.08;0.32;;;29.10;1.00;;;;;;5059115;28;20041;-74
2022/09/02 12:39:29;;;;;;;0.00;0.00;;;29.30;1.00;;;;;;5058500;28;20480;-74
2022/09/02 12:42:03;;;;;;;0.08;0.05;;;28.20;1.00;;;;;;5057649;28;20056;-73
2022/09/02 12:45:05;;;;;;;0.30;0.03;;;27.60;1.00;;;;;;5057730;28;20480;-74
2022/09/02 12:47:56;;;;;;;0.00;0.00;;;28.20;1.00;;;;;;5057560;28;20103;-74
2022/09/02 12:50:52;;;;;;;0.00;0.00;;;27.60;1.00;;;;;;5059629;28;20077;-74
2022/09/02 12:53:28;;;;;;;0.15;0.10;;;27.60;1.00;;;;;;5058530;28;20392;-74
2022/09/02 12:56:23;;;;;;;1.65;0.20;;;28.00;1.00;;;;;;5058662;28;20053;-75
2022/09/02 12:58:56;;;;;;;0.00;0.00;;;28.10;1.00;;;;;;5044247;28;20060;-74
2022/09/02 13:01:41;;;;;;;0.00;0.00;;;28.50;1.00;;;;;;5056793;28;20037;-74
2022/09/02 13:04:29;;;;;;;0.75;0.52;;;28.00;1.00;;;;;;5056276;28;20369;-74
2022/09/02 13:07:25;;;;;;;0.00;0.00;;;26.90;1.00;;;;;;5063736;28;20126;-75
2022/09/02 13:10:21;;;;;;;0.28;0.15;;;28.00;1.00;;;;;;5060104;28;20056;-74
2022/09/02 13:13:06;;;;;;;0.75;0.32;;;29.20;1.00;;;;;;5056150;28;20048;-74
2022/09/02 13:16:04;;;;;;;0.00;0.00;;;29.60;1.00;;;;;;5057437;28;20080;-74